Sitc Xiamen — 3ELU — position and weather

sailwx.info

Track history (hours):
 
Tides and Currents Weather Stations Pressure Air Temp Water Temp Dewpoint Dewpoint Depression Visibility Wind Speed Wind Dir Waves Ship Positions

Sitc Xiamen

Last reported at 2017-Jun-12 05:41 UTC. Time now 2017-Aug-20 00:32 UTC.
Position N 24°05' E 118°22'.
Warning: this ship's position is months out of date.

Length 145 m; draft 7.6 m.

Type: Cargo ship. MMSI: 355090000.

Date/timePositionNaut miles runAvg speedWind from/ knotsBaromVisibWave heightAir tempDewpointWater temp
2017-Jun-12 05:41N 24°05' E 118°22'314.7
2017-Jun-12 05:30N 24°07' E 118°20'714.3
2017-Jun-12 05:00N 24°13' E 118°17'713.8
2017-Jun-12 04:31N 24°19' E 118°13'612.4
2017-Jun-12 04:00N 24°23' E 118°07'5 9.9
2017-Jun-12 03:30N 24°26' E 118°03'5 9.8
2017-Jun-12 03:00N 24°31' E 118°05'0 0.3
2017-Jun-12 02:10N 24°31' E 118°05'0 0.0
2017-Jun-12 01:52N 24°31' E 118°05'0 0.0
2017-Jun-12 01:28N 24°31' E 118°05'0 0.0
2017-Jun-12 00:58N 24°31' E 118°05'0 0.0
2017-Jun-12 00:28N 24°31' E 118°05'0 0.0
2017-Jun-11 23:58N 24°31' E 118°05'0 0.0
2017-Jun-11 23:28N 24°31' E 118°05'0 0.0
2017-Jun-11 22:58N 24°31' E 118°05'0 0.0
2017-Jun-11 21:28N 24°31' E 118°05'1 1.9
2017-Jun-11 21:00N 24°30' E 118°04'4 9.0
2017-Jun-11 20:31N 24°26' E 118°04'510.2
2017-Jun-11 20:00N 24°22' E 118°08'4 7.7
2017-Jun-11 19:30N 24°20' E 118°11'612.0
2017-Jun-11 19:00N 24°20' E 118°18'815.3
2017-Jun-11 18:29N 24°23' E 118°26'714.1
2017-Jun-11 18:00N 24°26' E 118°33'5 9.5
2017-Jun-11 17:30N 24°31' E 118°33'0 0.1
2017-Jun-11 17:00N 24°31' E 118°33'0 0.1
2017-Jun-11 16:18N 24°31' E 118°33'0 0.2
2017-Jun-11 16:00N 24°31' E 118°33'0 0.0
2017-Jun-11 13:24N 24°31' E 118°33'0 0.1
2017-Jun-11 13:00N 24°31' E 118°33'0 0.0
2017-Jun-11 12:30N 24°31' E 118°33'0 0.0
2017-Jun-11 12:00N 24°31' E 118°33'0 0.1
2017-Jun-11 11:24N 24°31' E 118°33'0 0.0
2017-Jun-11 11:00N 24°31' E 118°33'0 0.1
2017-Jun-11 10:30N 24°31' E 118°33'0 0.1
2017-Jun-11 10:00N 24°31' E 118°33'0 0.1
2017-Jun-11 09:30N 24°31' E 118°33'0 0.1
2017-Jun-11 09:00N 24°31' E 118°33'1 1.6
2017-Jun-11 08:25N 24°30' E 118°33'2 5.5
2017-Jun-11 08:00N 24°28' E 118°33'0 0.6
2017-Jun-11 07:30N 24°28' E 118°33'0 0.3
2017-Jun-11 07:00N 24°28' E 118°33'0 0.1
2017-Jun-11 06:30N 24°28' E 118°33'0 0.1
2017-Jun-11 05:59N 24°28' E 118°33'1 2.3
2017-Jun-11 05:27N 24°27' E 118°33'2 4.4
2017-Jun-11 04:58N 24°25' E 118°33'1315.4
2017-Jun-11 04:08N 24°16' E 118°22'315.9
2017-Jun-11 03:57N 24°14' E 118°20'716.4
2017-Jun-11 03:30N 24°09' E 118°15'817.0
2017-Jun-11 03:00N 24°03' E 118°08'917.0
2017-Jun-11 02:29N 23°57' E 118°01'  
2017-Jun-03 12:44N 22°19' E 114°07'1 3.7
2017-Jun-03 12:31N 22°18' E 114°08'0 0.0
2017-Jun-03 06:42N 22°18' E 114°08'  
Track history (hours):
 
Tides and Currents Weather Stations Pressure Air Temp Water Temp Dewpoint Dewpoint Depression Visibility Wind Speed Wind Dir Waves Ship Positions

Sitc Xiamen

Last reported at 2017-Jun-12 05:41 UTC. Time now 2017-Aug-20 00:32 UTC.
Position N 24°05' E 118°22'.
Warning: this ship's position is months out of date.

Length 145 m; draft 7.6 m.

Type: Cargo ship. MMSI: 355090000.

Date/timePositionNaut miles runAvg speedWind from/ knotsBaromVisibWave heightAir tempDewpointWater temp
2017-Jun-12 05:41N 24°05' E 118°22'314.7
2017-Jun-12 05:30N 24°07' E 118°20'714.3
2017-Jun-12 05:00N 24°13' E 118°17'713.8
2017-Jun-12 04:31N 24°19' E 118°13'612.4
2017-Jun-12 04:00N 24°23' E 118°07'5 9.9
2017-Jun-12 03:30N 24°26' E 118°03'5 9.8
2017-Jun-12 03:00N 24°31' E 118°05'0 0.3
2017-Jun-12 02:10N 24°31' E 118°05'0 0.0
2017-Jun-12 01:52N 24°31' E 118°05'0 0.0
2017-Jun-12 01:28N 24°31' E 118°05'0 0.0
2017-Jun-12 00:58N 24°31' E 118°05'0 0.0
2017-Jun-12 00:28N 24°31' E 118°05'0 0.0
2017-Jun-11 23:58N 24°31' E 118°05'0 0.0
2017-Jun-11 23:28N 24°31' E 118°05'0 0.0
2017-Jun-11 22:58N 24°31' E 118°05'0 0.0
2017-Jun-11 21:28N 24°31' E 118°05'1 1.9
2017-Jun-11 21:00N 24°30' E 118°04'4 9.0
2017-Jun-11 20:31N 24°26' E 118°04'510.2
2017-Jun-11 20:00N 24°22' E 118°08'4 7.7
2017-Jun-11 19:30N 24°20' E 118°11'612.0
2017-Jun-11 19:00N 24°20' E 118°18'815.3
2017-Jun-11 18:29N 24°23' E 118°26'714.1
2017-Jun-11 18:00N 24°26' E 118°33'5 9.5
2017-Jun-11 17:30N 24°31' E 118°33'0 0.1
2017-Jun-11 17:00N 24°31' E 118°33'0 0.1
2017-Jun-11 16:18N 24°31' E 118°33'0 0.2
2017-Jun-11 16:00N 24°31' E 118°33'0 0.0
2017-Jun-11 13:24N 24°31' E 118°33'0 0.1
2017-Jun-11 13:00N 24°31' E 118°33'0 0.0
2017-Jun-11 12:30N 24°31' E 118°33'0 0.0
2017-Jun-11 12:00N 24°31' E 118°33'0 0.1
2017-Jun-11 11:24N 24°31' E 118°33'0 0.0
2017-Jun-11 11:00N 24°31' E 118°33'0 0.1
2017-Jun-11 10:30N 24°31' E 118°33'0 0.1
2017-Jun-11 10:00N 24°31' E 118°33'0 0.1
2017-Jun-11 09:30N 24°31' E 118°33'0 0.1
2017-Jun-11 09:00N 24°31' E 118°33'1 1.6
2017-Jun-11 08:25N 24°30' E 118°33'2 5.5
2017-Jun-11 08:00N 24°28' E 118°33'0 0.6
2017-Jun-11 07:30N 24°28' E 118°33'0 0.3
2017-Jun-11 07:00N 24°28' E 118°33'0 0.1
2017-Jun-11 06:30N 24°28' E 118°33'0 0.1
2017-Jun-11 05:59N 24°28' E 118°33'1 2.3
2017-Jun-11 05:27N 24°27' E 118°33'2 4.4
2017-Jun-11 04:58N 24°25' E 118°33'1315.4
2017-Jun-11 04:08N 24°16' E 118°22'315.9
2017-Jun-11 03:57N 24°14' E 118°20'716.4
2017-Jun-11 03:30N 24°09' E 118°15'817.0
2017-Jun-11 03:00N 24°03' E 118°08'917.0
2017-Jun-11 02:29N 23°57' E 118°01'  
2017-Jun-03 12:44N 22°19' E 114°07'1 3.7
2017-Jun-03 12:31N 22°18' E 114°08'0 0.0
2017-Jun-03 06:42N 22°18' E 114°08'  

Dump ship's entire track history